Time;durP1;ratioP1;P1;durP2;ratioP2;P2;SDS_P1;SDS_P2;PMS_P1;PMS_P2;Temp;Humidity;BMP_temperature;BMP_pressure;BME280_temperature;BME280_humidity;BME280_pressure;Samples;Min_cycle;Max_cycle;Signal;HPM_P1;HPM_P2
2023/08/11 00:01:18;;;;;;;3.10;2.80;;;21.50;74.40;;;;;;5051706;28;20317;-73
2023/08/11 00:03:45;;;;;;;2.90;2.60;;;21.50;74.40;;;;;;5051719;28;20662;-73
2023/08/11 00:06:13;;;;;;;2.93;2.67;;;21.50;74.40;;;;;;5051605;28;20229;-73
2023/08/11 00:08:42;;;;;;;4.93;2.93;;;21.50;74.40;;;;;;5052182;28;20209;-74
2023/08/11 00:11:11;;;;;;;4.20;2.93;;;21.50;74.40;;;;;;5051701;28;20226;-75
2023/08/11 00:13:38;;;;;;;3.47;3.17;;;21.50;74.50;;;;;;5051319;28;20210;-73
2023/08/11 00:16:05;;;;;;;3.67;2.60;;;21.50;74.40;;;;;;5051735;28;20234;-74
2023/08/11 00:18:32;;;;;;;3.97;3.57;;;21.50;74.50;;;;;;5051968;28;20296;-73
2023/08/11 00:21:00;;;;;;;2.93;2.57;;;21.50;74.70;;;;;;5051366;28;20225;-73
2023/08/11 00:23:27;;;;;;;3.30;3.00;;;21.50;74.70;;;;;;5051754;28;20210;-73
2023/08/11 00:25:55;;;;;;;2.80;2.60;;;21.50;74.80;;;;;;5051245;28;20208;-73
2023/08/11 00:28:22;;;;;;;4.07;2.60;;;21.50;74.90;;;;;;5054024;28;20219;-73
2023/08/11 00:30:50;;;;;;;3.27;2.90;;;21.50;75.10;;;;;;5055607;28;20193;-73
2023/08/11 00:33:18;;;;;;;3.40;2.90;;;21.40;75.10;;;;;;5055856;28;20217;-73
2023/08/11 00:35:45;;;;;;;4.23;3.37;;;21.40;75.20;;;;;;5055516;28;20205;-74
2023/08/11 00:38:12;;;;;;;5.57;3.10;;;21.40;75.30;;;;;;5055570;28;20232;-74
2023/08/11 00:40:39;;;;;;;5.60;2.70;;;21.40;75.40;;;;;;5055487;28;20256;-73
2023/08/11 00:43:07;;;;;;;3.90;2.83;;;21.30;75.40;;;;;;5064659;28;20227;-73
2023/08/11 00:45:34;;;;;;;2.70;2.50;;;21.30;75.50;;;;;;5075371;28;20201;-73
2023/08/11 00:48:01;;;;;;;3.93;3.20;;;21.20;75.30;;;;;;5075519;28;20592;-74
2023/08/11 00:50:28;;;;;;;4.33;2.73;;;21.10;75.30;;;;;;5075725;28;20186;-73
2023/08/11 00:53:00;;;;;;;3.20;2.90;;;21.20;75.40;;;;;;5075143;28;20205;-73
2023/08/11 00:55:27;;;;;;;5.27;2.83;;;21.10;76.30;;;;;;5075030;28;20228;-73
2023/08/11 00:57:54;;;;;;;3.30;3.00;;;21.10;75.50;;;;;;5075515;28;20306;-74
2023/08/11 01:00:24;;;;;;;5.27;3.00;;;21.10;75.80;;;;;;5075348;28;20221;-74
2023/08/11 01:02:51;;;;;;;5.17;2.90;;;21.00;76.60;;;;;;5075200;28;20209;-74
2023/08/11 01:05:20;;;;;;;3.83;2.83;;;21.00;75.90;;;;;;5075068;28;20231;-73
2023/08/11 01:07:57;;;;;;;3.50;3.20;;;21.00;76.00;;;;;;5074922;28;20768;-73
2023/08/11 01:10:33;;;;;;;3.50;2.90;;;21.00;76.20;;;;;;5074873;28;20220;-74
2023/08/11 01:13:09;;;;;;;3.30;3.00;;;20.90;76.20;;;;;;5075111;28;20545;-73
2023/08/11 01:15:40;;;;;;;3.20;2.87;;;20.90;76.30;;;;;;5074717;28;20238;-73
2023/08/11 01:18:08;;;;;;;3.90;3.00;;;20.90;76.40;;;;;;5074875;28;20232;-73
2023/08/11 01:20:36;;;;;;;3.30;2.90;;;20.90;76.50;;;;;;5073430;28;20312;-74
2023/08/11 01:23:05;;;;;;;3.30;3.00;;;20.90;76.50;;;;;;5074301;28;20212;-73
2023/08/11 01:25:34;;;;;;;5.77;3.60;;;20.90;76.60;;;;;;5074112;28;20261;-74
2023/08/11 01:28:02;;;;;;;3.50;3.20;;;20.80;76.60;;;;;;5075095;28;20319;-73
2023/08/11 01:30:29;;;;;;;3.57;3.20;;;20.80;76.70;;;;;;5056916;28;20189;-73
2023/08/11 01:32:56;;;;;;;3.67;3.37;;;20.80;76.70;;;;;;5074772;28;20262;-73
2023/08/11 01:35:24;;;;;;;4.17;3.50;;;20.70;76.70;;;;;;5074509;28;20205;-73
2023/08/11 01:37:51;;;;;;;3.40;2.90;;;20.70;76.90;;;;;;5074578;28;20208;-73
2023/08/11 01:40:18;;;;;;;4.87;2.80;;;20.70;76.90;;;;;;5074184;28;20225;-74
2023/08/11 01:42:46;;;;;;;4.43;3.20;;;20.70;77.00;;;;;;5067598;28;20309;-74
2023/08/11 01:45:15;;;;;;;4.13;3.00;;;20.60;76.90;;;;;;5054339;28;20304;-73
2023/08/11 01:47:45;;;;;;;4.50;3.00;;;20.60;76.90;;;;;;5054129;28;20233;-73
2023/08/11 01:50:14;;;;;;;3.30;3.00;;;20.60;77.00;;;;;;5054940;28;20205;-73
2023/08/11 01:52:45;;;;;;;3.90;3.13;;;20.60;77.00;;;;;;5053934;28;20701;-73
2023/08/11 01:55:13;;;;;;;3.57;3.23;;;20.60;77.00;;;;;;5054179;28;20235;-73
2023/08/11 01:57:40;;;;;;;3.23;2.80;;;20.60;77.00;;;;;;5054329;28;20336;-73
2023/08/11 02:00:13;;;;;;;3.13;2.90;;;20.60;77.00;;;;;;5054342;28;20210;-73
2023/08/11 02:02:40;;;;;;;3.40;3.07;;;20.60;77.00;;;;;;5054336;28;20233;-73
2023/08/11 02:05:09;;;;;;;3.97;3.10;;;20.50;76.80;;;;;;5054007;28;20607;-73
2023/08/11 02:07:36;;;;;;;4.17;2.93;;;20.50;76.90;;;;;;5053494;28;20728;-74
2023/08/11 02:10:03;;;;;;;4.97;2.90;;;20.60;77.00;;;;;;5054107;28;20218;-74
2023/08/11 02:12:31;;;;;;;3.40;2.93;;;20.50;76.90;;;;;;5053730;28;20292;-74
2023/08/11 02:14:58;;;;;;;5.63;3.23;;;20.50;76.80;;;;;;5053541;28;20214;-74
2023/08/11 02:17:26;;;;;;;3.20;2.90;;;20.50;76.80;;;;;;5053889;28;20224;-74
2023/08/11 02:19:54;;;;;;;4.43;2.90;;;20.50;76.90;;;;;;5054004;28;20233;-74
2023/08/11 02:22:21;;;;;;;3.77;2.90;;;20.50;77.10;;;;;;5053704;28;20324;-73
2023/08/11 02:24:47;;;;;;;4.53;3.47;;;20.40;77.00;;;;;;5053749;28;20233;-73
2023/08/11 02:27:14;;;;;;;4.17;3.43;;;20.40;77.10;;;;;;5053140;28;20733;-74
2023/08/11 02:29:41;;;;;;;3.40;3.07;;;20.40;77.20;;;;;;5053344;28;20344;-73
2023/08/11 02:32:08;;;;;;;3.20;2.90;;;20.40;77.40;;;;;;5053781;28;20190;-73
2023/08/11 02:34:37;;;;;;;3.60;3.30;;;20.40;77.40;;;;;;5053253;28;20218;-73
2023/08/11 02:37:04;;;;;;;4.47;3.27;;;20.40;77.60;;;;;;5053258;28;20198;-74
2023/08/11 02:39:30;;;;;;;4.10;3.10;;;20.40;77.60;;;;;;5053391;28;20213;-73
2023/08/11 02:41:57;;;;;;;6.47;3.00;;;20.40;77.70;;;;;;5053135;28;20226;-73
2023/08/11 02:44:24;;;;;;;3.50;3.13;;;20.40;77.60;;;;;;5073454;28;20217;-73
2023/08/11 02:46:51;;;;;;;4.10;3.27;;;20.30;77.40;;;;;;5073120;28;20201;-73
2023/08/11 02:49:18;;;;;;;4.13;3.50;;;20.40;77.50;;;;;;5073406;28;20223;-73
2023/08/11 02:51:46;;;;;;;4.53;3.40;;;20.30;77.30;;;;;;5072450;28;20589;-74
2023/08/11 02:54:13;;;;;;;3.40;3.10;;;20.30;77.50;;;;;;5072928;28;20211;-73
2023/08/11 02:56:46;;;;;;;4.47;3.03;;;20.30;77.50;;;;;;5072759;28;20228;-73
2023/08/11 02:59:13;;;;;;;5.70;3.37;;;20.30;78.20;;;;;;5073188;28;20196;-73
2023/08/11 03:01:40;;;;;;;4.47;3.00;;;20.30;77.70;;;;;;5072540;28;20239;-73
2023/08/11 03:04:08;;;;;;;3.40;3.10;;;20.30;78.60;;;;;;5073326;28;20189;-74
2023/08/11 03:06:35;;;;;;;3.87;3.33;;;20.20;77.80;;;;;;5072445;28;20292;-73
2023/08/11 03:09:03;;;;;;;3.47;3.17;;;20.30;77.90;;;;;;5073088;28;20220;-73
2023/08/11 03:11:30;;;;;;;3.50;3.20;;;20.30;78.00;;;;;;5072865;28;20209;-74
2023/08/11 03:13:57;;;;;;;3.60;3.27;;;20.20;77.90;;;;;;5072851;28;20208;-74
2023/08/11 03:16:25;;;;;;;3.97;3.33;;;20.20;78.00;;;;;;5054259;28;20217;-73
2023/08/11 03:18:52;;;;;;;3.93;3.50;;;20.10;77.90;;;;;;5072822;28;20231;-75
2023/08/11 03:21:19;;;;;;;3.53;3.23;;;20.10;77.90;;;;;;5072036;28;20822;-73
2023/08/11 03:23:46;;;;;;;4.27;3.53;;;20.10;78.00;;;;;;5072081;28;20233;-74
2023/08/11 03:26:14;;;;;;;3.40;3.10;;;20.00;78.00;;;;;;5072237;28;20637;-73
2023/08/11 03:28:41;;;;;;;4.17;2.90;;;20.00;78.10;;;;;;5072188;28;20723;-73
2023/08/11 03:31:08;;;;;;;4.27;3.77;;;20.00;78.20;;;;;;5072581;28;20206;-73
2023/08/11 03:33:35;;;;;;;4.87;3.57;;;20.00;78.40;;;;;;5072120;28;20604;-74
2023/08/11 03:36:02;;;;;;;3.70;3.17;;;19.90;78.40;;;;;;5071806;28;20220;-73
2023/08/11 03:38:29;;;;;;;4.00;3.40;;;19.90;78.40;;;;;;5072460;28;20299;-73
2023/08/11 03:40:56;;;;;;;4.13;3.13;;;19.90;78.40;;;;;;5072566;28;20225;-74
2023/08/11 03:43:24;;;;;;;3.60;3.30;;;19.90;78.40;;;;;;5059991;28;20222;-73
2023/08/11 03:45:51;;;;;;;5.07;3.30;;;19.90;78.40;;;;;;5051837;28;20324;-73
2023/08/11 03:48:18;;;;;;;3.60;3.27;;;19.90;78.40;;;;;;5052126;28;20205;-74
2023/08/11 03:50:45;;;;;;;5.77;3.20;;;19.90;78.40;;;;;;5052088;28;20229;-73
2023/08/11 03:53:12;;;;;;;4.37;3.40;;;19.90;78.60;;;;;;5052355;28;20217;-73
2023/08/11 03:55:39;;;;;;;3.73;2.97;;;19.90;78.80;;;;;;5051390;28;20234;-73
2023/08/11 03:58:06;;;;;;;4.47;3.00;;;19.80;78.50;;;;;;5052073;28;20572;-73
2023/08/11 04:00:35;;;;;;;4.13;3.13;;;19.80;78.50;;;;;;5052119;28;20570;-73
2023/08/11 04:03:03;;;;;;;3.30;3.00;;;19.80;78.40;;;;;;5050785;28;20226;-73
2023/08/11 04:05:30;;;;;;;3.67;3.20;;;19.80;78.40;;;;;;5051581;28;20202;-73
2023/08/11 04:07:57;;;;;;;3.40;3.10;;;19.90;78.50;;;;;;5052006;28;20616;-73
2023/08/11 04:10:24;;;;;;;4.90;3.37;;;19.90;78.60;;;;;;5051821;28;20730;-73
2023/08/11 04:12:51;;;;;;;3.63;2.90;;;19.80;78.50;;;;;;5051866;28;20240;-74
2023/08/11 04:15:18;;;;;;;3.80;2.90;;;19.80;78.50;;;;;;5051826;28;20640;-73
2023/08/11 04:17:46;;;;;;;3.87;3.20;;;19.80;78.60;;;;;;5051681;28;20237;-74
2023/08/11 04:20:13;;;;;;;3.73;3.00;;;19.80;78.90;;;;;;5051746;28;20209;-73
2023/08/11 04:22:40;;;;;;;5.50;3.00;;;19.80;78.90;;;;;;5000423;28;20241;-74
2023/08/11 04:25:09;;;;;;;4.70;3.23;;;19.80;79.20;;;;;;5051482;28;20209;-73
2023/08/11 04:27:35;;;;;;;3.67;3.30;;;19.80;79.40;;;;;;5051226;28;20226;-72
2023/08/11 04:30:03;;;;;;;6.37;3.00;;;19.80;79.40;;;;;;5051570;28;20717;-73
2023/08/11 04:32:30;;;;;;;5.00;3.43;;;19.80;79.40;;;;;;5051489;28;20316;-74
2023/08/11 04:34:58;;;;;;;3.83;2.83;;;19.80;79.20;;;;;;5051569;28;20618;-74
2023/08/11 04:37:25;;;;;;;3.80;3.10;;;19.80;79.10;;;;;;5051275;28;20383;-74
2023/08/11 04:39:52;;;;;;;4.97;3.43;;;19.80;79.50;;;;;;5051796;28;20204;-73
2023/08/11 04:42:21;;;;;;;5.33;3.73;;;19.80;79.50;;;;;;5054767;28;20216;-73
2023/08/11 04:44:47;;;;;;;4.27;3.70;;;19.90;79.90;;;;;;5071580;28;20231;-73
2023/08/11 04:47:14;;;;;;;3.40;3.07;;;19.80;80.00;;;;;;5070912;28;20211;-73
2023/08/11 04:49:41;;;;;;;6.07;3.90;;;19.80;80.00;;;;;;5071617;28;20521;-73
2023/08/11 04:52:10;;;;;;;6.30;4.27;;;19.80;80.20;;;;;;5071531;28;20657;-73
2023/08/11 04:54:37;;;;;;;9.37;4.43;;;19.80;80.20;;;;;;5071057;28;20715;-73
2023/08/11 04:57:04;;;;;;;7.37;4.80;;;19.80;80.40;;;;;;5071266;28;20301;-73
2023/08/11 04:59:31;;;;;;;7.00;4.47;;;19.80;80.40;;;;;;5071354;28;20228;-74
2023/08/11 05:01:58;;;;;;;4.70;3.60;;;19.90;80.80;;;;;;5071332;28;20232;-73
2023/08/11 05:04:25;;;;;;;4.60;3.97;;;19.90;81.50;;;;;;5071307;28;20257;-73
2023/08/11 05:06:52;;;;;;;4.97;4.10;;;19.80;80.50;;;;;;5053047;28;20299;-74
2023/08/11 05:09:21;;;;;;;4.83;3.43;;;19.90;80.70;;;;;;5071754;28;20247;-73
2023/08/11 05:11:47;;;;;;;3.70;3.40;;;19.80;80.60;;;;;;5071510;28;20400;-73
2023/08/11 05:14:15;;;;;;;3.60;3.30;;;19.90;80.80;;;;;;5073430;28;20436;-74
2023/08/11 05:16:42;;;;;;;3.60;3.30;;;19.90;80.80;;;;;;5074564;28;20205;-73
2023/08/11 05:19:09;;;;;;;4.47;3.30;;;19.90;80.60;;;;;;5075149;28;20217;-73
2023/08/11 05:21:36;;;;;;;4.07;3.67;;;19.90;80.70;;;;;;5074990;28;20303;-73
2023/08/11 05:24:03;;;;;;;4.83;3.50;;;19.90;81.00;;;;;;5074479;28;20223;-73
2023/08/11 05:26:32;;;;;;;3.57;3.20;;;19.90;80.60;;;;;;5074629;28;20231;-73
2023/08/11 05:28:59;;;;;;;5.43;3.53;;;20.00;80.60;;;;;;5074659;28;20240;-73
2023/08/11 05:31:26;;;;;;;5.10;3.33;;;20.00;80.50;;;;;;5074851;28;20229;-73
2023/08/11 05:33:53;;;;;;;3.33;3.03;;;20.00;80.70;;;;;;5074757;28;20249;-73
2023/08/11 05:36:20;;;;;;;4.23;3.37;;;20.10;80.70;;;;;;5074261;28;20205;-73
2023/08/11 05:38:47;;;;;;;4.37;3.60;;;20.20;80.70;;;;;;5074765;28;20280;-73
2023/08/11 05:41:14;;;;;;;4.83;3.47;;;20.20;80.30;;;;;;5074704;28;20571;-73
2023/08/11 05:43:42;;;;;;;4.93;3.47;;;20.30;80.20;;;;;;5060218;28;20284;-74
2023/08/11 05:46:10;;;;;;;3.40;3.10;;;20.30;80.30;;;;;;5053499;28;20690;-73
2023/08/11 05:48:37;;;;;;;3.37;3.07;;;20.40;80.20;;;;;;5054657;28;20230;-74
2023/08/11 05:51:04;;;;;;;3.73;3.10;;;20.50;80.30;;;;;;5054302;28;20228;-73
2023/08/11 05:53:31;;;;;;;3.90;3.50;;;20.50;80.20;;;;;;5054284;28;20240;-73
2023/08/11 05:55:58;;;;;;;4.33;3.33;;;20.60;79.80;;;;;;5053790;28;20693;-73
2023/08/11 05:58:25;;;;;;;5.07;2.93;;;20.60;79.60;;;;;;5054159;28;20226;-74
2023/08/11 06:00:53;;;;;;;3.33;2.93;;;20.60;79.20;;;;;;5053897;28;20206;-73
2023/08/11 06:03:20;;;;;;;3.70;2.90;;;20.80;79.40;;;;;;5054204;28;20317;-74
2023/08/11 06:05:47;;;;;;;4.23;3.37;;;20.80;79.50;;;;;;5053651;28;20191;-73
2023/08/11 06:08:14;;;;;;;3.50;3.20;;;20.90;79.80;;;;;;5054151;28;20221;-73
2023/08/11 06:10:40;;;;;;;3.03;2.73;;;21.00;78.90;;;;;;5054249;28;20302;-73
2023/08/11 06:13:07;;;;;;;3.50;3.20;;;21.00;78.70;;;;;;5053480;28;20198;-73
2023/08/11 06:15:34;;;;;;;3.27;2.90;;;21.10;78.60;;;;;;5053780;28;20237;-73
2023/08/11 06:18:02;;;;;;;4.30;3.17;;;21.10;78.50;;;;;;5053940;28;20224;-73
2023/08/11 06:20:29;;;;;;;3.63;3.17;;;21.20;78.10;;;;;;5053889;28;20237;-73
2023/08/11 06:22:56;;;;;;;4.50;2.90;;;21.20;77.60;;;;;;5053944;28;20232;-73
2023/08/11 06:25:23;;;;;;;3.33;3.03;;;21.30;77.60;;;;;;5052881;28;20229;-73
2023/08/11 06:27:50;;;;;;;4.43;3.30;;;21.40;77.60;;;;;;5052929;28;20212;-74
2023/08/11 06:30:17;;;;;;;3.63;3.30;;;21.40;77.30;;;;;;5053353;28;20238;-74
2023/08/11 06:32:44;;;;;;;4.57;3.47;;;21.40;77.50;;;;;;5035807;28;20674;-73
2023/08/11 06:35:12;;;;;;;4.33;3.10;;;21.40;77.40;;;;;;5053460;28;20217;-73
2023/08/11 06:37:39;;;;;;;3.50;3.20;;;21.50;77.40;;;;;;5053576;28;20666;-73
2023/08/11 06:40:08;;;;;;;3.93;3.40;;;21.50;77.40;;;;;;5053642;28;20214;-73
2023/08/11 06:42:35;;;;;;;3.40;3.10;;;21.60;77.50;;;;;;5058515;28;20737;-73
2023/08/11 06:45:02;;;;;;;4.37;3.27;;;21.70;77.40;;;;;;5072828;28;20742;-73
2023/08/11 06:47:31;;;;;;;3.43;3.13;;;21.70;77.20;;;;;;5073094;28;20225;-73
2023/08/11 06:49:57;;;;;;;3.40;3.10;;;21.80;77.30;;;;;;5073425;28;20201;-73
2023/08/11 06:52:26;;;;;;;3.87;3.03;;;21.90;77.00;;;;;;5073374;28;20226;-73
2023/08/11 06:54:53;;;;;;;5.73;3.60;;;22.00;76.70;;;;;;5073168;28;20209;-73
2023/08/11 06:57:21;;;;;;;6.03;3.17;;;22.10;76.70;;;;;;5072437;28;20235;-73
2023/08/11 06:59:48;;;;;;;3.23;2.93;;;22.20;76.50;;;;;;5073286;28;20189;-72
2023/08/11 07:02:15;;;;;;;3.27;2.97;;;22.30;76.70;;;;;;5073027;28;20225;-73
2023/08/11 07:04:41;;;;;;;3.90;3.13;;;22.40;76.40;;;;;;5072994;28;20300;-72
2023/08/11 07:07:08;;;;;;;4.43;3.30;;;22.40;76.30;;;;;;5072845;28;20221;-73
2023/08/11 07:09:37;;;;;;;3.50;2.87;;;22.50;76.10;;;;;;5072683;28;20211;-73
2023/08/11 07:12:05;;;;;;;3.43;3.13;;;22.60;76.20;;;;;;5072608;28;20201;-73
2023/08/11 07:14:32;;;;;;;3.73;3.33;;;22.60;76.20;;;;;;5072674;28;20236;-73
2023/08/11 07:16:59;;;;;;;5.87;3.47;;;22.80;76.60;;;;;;5072458;28;20217;-73
2023/08/11 07:19:26;;;;;;;4.23;3.83;;;22.90;76.30;;;;;;5070793;28;20289;-73
2023/08/11 07:21:53;;;;;;;4.43;3.90;;;22.90;75.60;;;;;;5072837;28;20231;-73
2023/08/11 07:24:19;;;;;;;5.87;4.90;;;22.90;75.50;;;;;;5072543;28;20321;-73
2023/08/11 07:26:48;;;;;;;4.70;3.57;;;23.00;75.40;;;;;;5072077;28;20390;-73
2023/08/11 07:29:15;;;;;;;4.60;3.87;;;23.10;75.60;;;;;;5072529;28;20286;-74
2023/08/11 07:31:41;;;;;;;3.73;3.33;;;23.20;75.10;;;;;;5072541;28;20614;-73
2023/08/11 07:34:08;;;;;;;5.23;3.90;;;23.30;75.50;;;;;;5072399;28;20205;-74
2023/08/11 07:36:35;;;;;;;3.77;3.47;;;23.30;75.40;;;;;;5072277;28;20227;-73
2023/08/11 07:39:02;;;;;;;3.83;3.40;;;23.40;75.30;;;;;;5074077;28;20205;-73
2023/08/11 07:41:29;;;;;;;3.43;3.13;;;23.60;75.00;;;;;;5072187;28;20259;-75
2023/08/11 07:43:58;;;;;;;4.10;3.30;;;23.70;74.70;;;;;;5055425;28;20218;-73
2023/08/11 07:46:24;;;;;;;4.27;3.37;;;23.80;74.40;;;;;;5051786;28;20235;-73
2023/08/11 07:48:51;;;;;;;6.23;3.60;;;23.80;73.80;;;;;;5052431;28;20216;-73
2023/08/11 07:51:18;;;;;;;5.33;3.77;;;24.00;73.90;;;;;;5052233;28;20324;-73
2023/08/11 07:53:45;;;;;;;5.57;3.67;;;24.10;73.70;;;;;;5052225;28;20217;-73
2023/08/11 07:56:12;;;;;;;5.70;3.50;;;24.20;73.30;;;;;;5051518;28;20317;-72
2023/08/11 07:58:39;;;;;;;4.57;3.93;;;24.30;73.00;;;;;;5051975;28;20307;-73
2023/08/11 08:01:08;;;;;;;5.43;3.73;;;24.40;72.30;;;;;;5051665;28;20219;-74
2023/08/11 08:03:35;;;;;;;4.00;3.37;;;24.40;72.00;;;;;;5051873;28;20225;-73
2023/08/11 08:06:04;;;;;;;4.13;3.70;;;24.50;72.40;;;;;;5051907;28;20205;-74
2023/08/11 08:08:31;;;;;;;4.73;3.60;;;24.60;71.70;;;;;;5051863;28;20241;-73
2023/08/11 08:10:58;;;;;;;3.83;3.43;;;24.80;71.60;;;;;;5051734;28;20201;-72
2023/08/11 08:13:25;;;;;;;4.13;3.53;;;24.80;71.70;;;;;;5051853;28;20260;-73
2023/08/11 08:15:52;;;;;;;3.50;3.20;;;24.90;72.20;;;;;;5051700;28;20209;-73
2023/08/11 08:18:21;;;;;;;4.20;3.33;;;25.10;71.80;;;;;;5051836;28;20316;-73
2023/08/11 08:20:48;;;;;;;5.70;3.60;;;25.20;71.70;;;;;;5051957;28;20206;-73
2023/08/11 08:23:15;;;;;;;5.47;3.33;;;25.20;70.70;;;;;;5051865;28;20332;-73
2023/08/11 08:25:41;;;;;;;4.97;3.57;;;25.30;71.00;;;;;;5051076;28;20202;-73
2023/08/11 08:28:08;;;;;;;3.80;3.30;;;25.40;70.80;;;;;;5051328;28;20296;-74
2023/08/11 08:30:35;;;;;;;4.50;3.40;;;25.50;72.60;;;;;;5051836;28;20285;-74
2023/08/11 08:33:02;;;;;;;3.77;3.37;;;25.60;72.20;;;;;;5051655;28;20201;-74
2023/08/11 08:35:30;;;;;;;5.67;3.80;;;25.70;71.00;;;;;;5051593;28;20647;-73
2023/08/11 08:37:57;;;;;;;4.30;3.90;;;25.80;69.50;;;;;;5051414;28;20217;-73
2023/08/11 08:40:25;;;;;;;4.47;3.47;;;25.80;69.40;;;;;;5051603;28;20316;-73
2023/08/11 08:42:52;;;;;;;9.33;3.67;;;25.80;68.60;;;;;;5058871;28;20235;-73
2023/08/11 08:45:19;;;;;;;3.80;3.50;;;25.80;68.50;;;;;;5071545;28;20261;-73
2023/08/11 08:47:48;;;;;;;5.13;3.80;;;25.90;68.90;;;;;;5071537;28;20272;-73
2023/08/11 08:50:16;;;;;;;4.77;3.33;;;26.00;69.00;;;;;;5075405;28;20204;-73
2023/08/11 08:52:44;;;;;;;5.17;3.67;;;26.00;69.10;;;;;;5075555;28;20274;-73
2023/08/11 08:55:12;;;;;;;4.17;3.73;;;26.20;70.00;;;;;;5075291;28;20220;-74
2023/08/11 08:57:40;;;;;;;3.60;3.30;;;26.30;69.10;;;;;;5075187;28;20206;-73
2023/08/11 09:00:08;;;;;;;3.93;3.60;;;26.40;70.10;;;;;;5075320;28;20228;-73
2023/08/11 09:02:36;;;;;;;3.93;3.27;;;26.60;68.80;;;;;;5075384;28;20217;-75
2023/08/11 09:05:03;;;;;;;4.33;3.40;;;26.70;66.80;;;;;;5075021;28;20840;-73
2023/08/11 09:07:30;;;;;;;3.60;3.23;;;26.70;67.30;;;;;;5074751;28;20595;-74
2023/08/11 09:09:58;;;;;;;5.83;3.37;;;26.80;68.20;;;;;;5075298;28;20216;-73
2023/08/11 09:12:27;;;;;;;3.50;3.20;;;26.90;65.70;;;;;;5075282;28;20317;-73
2023/08/11 09:14:54;;;;;;;5.27;3.47;;;26.90;66.10;;;;;;5075290;28;20240;-73
2023/08/11 09:17:21;;;;;;;3.80;3.50;;;27.10;66.70;;;;;;5074530;28;20236;-73
2023/08/11 09:19:50;;;;;;;3.87;3.33;;;27.20;65.80;;;;;;5074998;28;20194;-73
2023/08/11 09:22:23;;;;;;;4.57;3.47;;;27.30;65.20;;;;;;5075065;28;20639;-74
2023/08/11 09:24:50;;;;;;;4.93;3.30;;;27.30;65.70;;;;;;5074958;28;20272;-73
2023/08/11 09:27:18;;;;;;;5.37;3.33;;;27.40;65.60;;;;;;5074609;28;20212;-73
2023/08/11 09:29:45;;;;;;;3.83;3.00;;;27.50;65.40;;;;;;5074742;28;20239;-73
2023/08/11 09:32:13;;;;;;;3.93;3.53;;;27.60;64.40;;;;;;5074990;28;20302;-73
2023/08/11 09:34:40;;;;;;;3.87;3.47;;;27.60;63.60;;;;;;5074911;28;20242;-73
2023/08/11 09:37:07;;;;;;;3.53;2.87;;;27.60;63.50;;;;;;5073747;28;20215;-74
2023/08/11 09:39:34;;;;;;;5.07;3.17;;;27.60;63.90;;;;;;5074370;28;20322;-73
2023/08/11 09:42:01;;;;;;;4.67;3.50;;;27.80;63.20;;;;;;5074091;28;20206;-73
2023/08/11 09:44:30;;;;;;;3.73;3.43;;;27.90;63.10;;;;;;5054432;28;20271;-73
2023/08/11 09:46:57;;;;;;;3.70;3.40;;;28.00;63.20;;;;;;5054321;28;20189;-73
2023/08/11 09:49:24;;;;;;;3.40;2.90;;;28.10;62.30;;;;;;5054319;28;20215;-73
2023/08/11 09:51:55;;;;;;;3.53;3.07;;;28.20;62.60;;;;;;5054616;28;20201;-74
2023/08/11 09:54:23;;;;;;;5.33;2.90;;;28.30;62.20;;;;;;5054402;28;20656;-73
2023/08/11 09:56:50;;;;;;;3.93;3.50;;;28.40;61.80;;;;;;5054034;28;20291;-74
2023/08/11 09:59:20;;;;;;;6.17;3.43;;;28.50;60.80;;;;;;5053493;28;20213;-73
2023/08/11 10:01:49;;;;;;;4.00;3.70;;;28.40;60.30;;;;;;5053728;28;20279;-73
2023/08/11 10:04:19;;;;;;;3.67;2.80;;;28.50;61.10;;;;;;5054462;28;20619;-73
2023/08/11 10:06:50;;;;;;;3.53;2.80;;;28.50;60.50;;;;;;5053534;28;20628;-73
2023/08/11 10:09:20;;;;;;;4.27;3.33;;;28.60;59.50;;;;;;5054259;28;20193;-72
2023/08/11 10:11:47;;;;;;;3.10;2.90;;;28.60;59.60;;;;;;5054028;28;20317;-73
2023/08/11 10:14:17;;;;;;;3.57;3.00;;;28.70;59.30;;;;;;5054285;28;20288;-73
2023/08/11 10:16:45;;;;;;;5.27;3.37;;;28.80;60.00;;;;;;5053871;28;20225;-72
2023/08/11 10:19:14;;;;;;;4.60;3.27;;;29.00;59.30;;;;;;5053877;28;20205;-73
2023/08/11 10:21:41;;;;;;;3.77;3.43;;;29.10;58.50;;;;;;5053865;28;20324;-73
2023/08/11 10:24:09;;;;;;;3.60;3.23;;;29.20;58.60;;;;;;5053843;28;20223;-74
2023/08/11 10:26:36;;;;;;;3.20;2.90;;;29.30;58.50;;;;;;5053137;28;20206;-74
2023/08/11 10:29:04;;;;;;;3.50;3.20;;;29.40;58.30;;;;;;5053602;28;20233;-73
2023/08/11 10:31:32;;;;;;;3.17;2.80;;;29.50;58.30;;;;;;5053617;28;20577;-73
2023/08/11 10:34:05;;;;;;;3.70;3.40;;;29.60;58.60;;;;;;5053910;28;20206;-73
2023/08/11 10:36:34;;;;;;;3.67;3.30;;;29.60;58.20;;;;;;5052986;28;20289;-72
2023/08/11 10:39:03;;;;;;;3.43;3.13;;;29.80;58.10;;;;;;5053625;28;20336;-73
2023/08/11 10:41:34;;;;;;;4.13;3.43;;;29.90;57.50;;;;;;5053771;28;20213;-73
2023/08/11 10:44:00;;;;;;;3.07;2.87;;;30.10;58.60;;;;;;5019226;28;20235;-73
2023/08/11 10:46:30;;;;;;;3.43;3.13;;;30.20;59.10;;;;;;5073276;28;20231;-74
2023/08/11 10:48:59;;;;;;;3.73;3.27;;;30.30;58.20;;;;;;5073069;28;20682;-74
2023/08/11 10:51:31;;;;;;;3.60;3.30;;;30.40;57.70;;;;;;5073304;28;20300;-74
2023/08/11 10:54:01;;;;;;;4.33;3.30;;;30.40;56.50;;;;;;5073419;28;20239;-74
2023/08/11 10:56:30;;;;;;;3.83;3.30;;;30.50;56.60;;;;;;5072968;28;20189;-73
2023/08/11 10:59:13;;;;;;;5.57;3.67;;;30.50;57.40;;;;;;5073202;28;20220;-73
2023/08/11 11:01:43;;;;;;;3.43;3.13;;;30.70;58.30;;;;;;5073211;28;20702;-74
2023/08/11 11:04:11;;;;;;;3.30;3.00;;;30.80;58.10;;;;;;5073053;28;20256;-74
2023/08/11 11:06:39;;;;;;;3.60;2.70;;;30.90;56.80;;;;;;5072281;28;20201;-73
2023/08/11 11:09:08;;;;;;;3.57;3.27;;;31.10;56.30;;;;;;5073099;28;20207;-73
2023/08/11 11:11:36;;;;;;;3.30;3.00;;;31.10;55.20;;;;;;5072615;28;20205;-74
2023/08/11 11:14:03;;;;;;;3.37;2.93;;;31.10;54.80;;;;;;5072620;28;20307;-73
2023/08/11 11:16:32;;;;;;;3.63;3.33;;;31.20;54.90;;;;;;5072505;28;20216;-73
2023/08/11 11:19:00;;;;;;;3.83;3.00;;;31.30;54.60;;;;;;5072303;28;20204;-74
2023/08/11 11:21:27;;;;;;;4.13;3.73;;;31.30;53.60;;;;;;5072375;28;20665;-73
2023/08/11 11:23:54;;;;;;;4.10;3.70;;;31.20;54.60;;;;;;5072359;28;20327;-74
2023/08/11 11:26:27;;;;;;;3.73;3.37;;;31.20;54.20;;;;;;5072434;28;20323;-74
2023/08/11 11:28:55;;;;;;;3.10;2.80;;;31.20;53.20;;;;;;5072632;28;20251;-73
2023/08/11 11:31:24;;;;;;;5.67;3.43;;;31.20;53.90;;;;;;5072746;28;20331;-73
2023/08/11 11:33:51;;;;;;;5.30;3.47;;;31.30;53.90;;;;;;5072255;28;20229;-73
2023/08/11 11:36:20;;;;;;;3.20;2.90;;;31.40;53.40;;;;;;5072211;28;20211;-74
2023/08/11 11:38:47;;;;;;;3.87;3.10;;;31.50;52.90;;;;;;5072169;28;20192;-74
2023/08/11 11:41:15;;;;;;;2.87;2.60;;;31.50;52.40;;;;;;5072225;28;20252;-73
2023/08/11 11:43:45;;;;;;;3.00;2.70;;;31.50;52.60;;;;;;5057551;28;20712;-73
2023/08/11 11:46:15;;;;;;;4.33;3.07;;;31.60;52.90;;;;;;5052410;28;20210;-74
2023/08/11 11:48:44;;;;;;;3.50;3.00;;;31.70;53.10;;;;;;5051801;28;20214;-73
2023/08/11 11:51:12;;;;;;;4.10;3.23;;;31.80;53.00;;;;;;5052523;28;20345;-72
2023/08/11 11:53:39;;;;;;;4.97;3.30;;;31.90;51.70;;;;;;5051838;28;20231;-73
2023/08/11 11:56:07;;;;;;;3.33;2.90;;;31.90;52.20;;;;;;5052323;28;20201;-75
2023/08/11 11:58:34;;;;;;;3.40;3.20;;;32.00;53.00;;;;;;5051622;28;20262;-74
2023/08/11 12:01:12;;;;;;;4.77;3.13;;;32.00;51.90;;;;;;5052242;28;20209;-73
2023/08/11 12:03:39;;;;;;;3.50;3.20;;;32.00;51.40;;;;;;5051799;28;20230;-73
2023/08/11 12:06:07;;;;;;;3.77;2.93;;;32.00;51.70;;;;;;5051955;28;20671;-74
2023/08/11 12:08:35;;;;;;;3.97;3.67;;;31.90;51.70;;;;;;5051509;28;20328;-74
2023/08/11 12:11:02;;;;;;;4.27;3.10;;;32.00;51.80;;;;;;5051999;28;20207;-73
2023/08/11 12:13:31;;;;;;;3.90;3.50;;;32.10;52.00;;;;;;5051708;28;20206;-74
2023/08/11 12:15:58;;;;;;;3.20;2.90;;;32.10;52.00;;;;;;5051857;28;20578;-72
2023/08/11 12:18:28;;;;;;;3.87;3.23;;;32.20;50.90;;;;;;5051606;28;20213;-74
2023/08/11 12:20:57;;;;;;;3.50;3.20;;;32.20;50.60;;;;;;5052229;28;20213;-73
2023/08/11 12:23:24;;;;;;;3.30;3.00;;;32.30;51.90;;;;;;5050882;28;20223;-73
2023/08/11 12:25:52;;;;;;;3.83;3.30;;;32.40;52.10;;;;;;5051954;28;20337;-73
2023/08/11 12:28:19;;;;;;;5.70;3.20;;;32.60;51.50;;;;;;5051184;28;20280;-73
2023/08/11 12:30:46;;;;;;;4.73;3.47;;;32.70;51.00;;;;;;5051673;28;20232;-72
2023/08/11 12:33:13;;;;;;;3.33;3.03;;;32.80;51.20;;;;;;5051684;28;20638;-74
2023/08/11 12:35:41;;;;;;;3.63;3.20;;;32.90;51.10;;;;;;5051832;28;20621;-73
2023/08/11 12:38:12;;;;;;;3.60;3.30;;;32.90;49.90;;;;;;5051478;28;20294;-73
2023/08/11 12:40:39;;;;;;;4.07;3.20;;;33.00;50.30;;;;;;5051831;28;20233;-73
2023/08/11 12:43:06;;;;;;;2.90;2.60;;;33.00;49.80;;;;;;5061521;28;20198;-73
2023/08/11 12:45:32;;;;;;;3.53;3.10;;;33.00;49.50;;;;;;5071251;28;20223;-74
2023/08/11 12:47:59;;;;;;;3.13;2.80;;;33.10;50.00;;;;;;5071211;28;20225;-72
2023/08/11 12:50:28;;;;;;;4.57;3.13;;;33.10;49.90;;;;;;5071631;28;20202;-73